createdAt,value
2019-02-02T00:00:02.918Z,18.80
2019-02-02T00:02:33.397Z,18.13
2019-02-02T00:05:05.101Z,18.53
2019-02-02T00:07:36.973Z,19.40
2019-02-02T00:10:08.357Z,20.20
2019-02-02T00:12:39.337Z,21.02
2019-02-02T00:15:10.002Z,22.90
2019-02-02T00:17:41.403Z,28.93
2019-02-02T00:20:12.610Z,18.55
2019-02-02T00:22:43.314Z,29.37
2019-02-02T00:25:14.228Z,25.52
2019-02-02T00:27:44.722Z,18.52
2019-02-02T00:30:15.640Z,17.07
2019-02-02T00:32:46.399Z,10.25
2019-02-02T00:35:17.226Z,11.13
2019-02-02T00:37:47.878Z,10.70
2019-02-02T00:40:19.743Z,10.03
2019-02-02T00:42:50.356Z,10.78
2019-02-02T00:45:21.431Z,13.68
2019-02-02T00:47:52.949Z,18.20
2019-02-02T00:50:23.459Z,19.42
2019-02-02T00:52:54.299Z,22.13
2019-02-02T00:55:24.849Z,23.07
2019-02-02T00:57:55.125Z,19.03
2019-02-02T01:00:28.142Z,16.50
2019-02-02T01:02:59.159Z,21.07
2019-02-02T01:05:31.499Z,18.95
2019-02-02T01:08:02.278Z,17.82
2019-02-02T01:10:33.915Z,17.42
2019-02-02T01:13:05.168Z,18.55
2019-02-02T01:15:36.076Z,15.95
2019-02-02T01:18:07.033Z,12.50
2019-02-02T01:20:37.583Z,12.63
2019-02-02T01:23:08.787Z,13.32
2019-02-02T01:25:39.486Z,13.83
2019-02-02T01:28:10.229Z,12.93
2019-02-02T01:30:40.928Z,14.75
2019-02-02T01:33:12.539Z,13.08
2019-02-02T01:35:43.282Z,11.67
2019-02-02T01:38:14.230Z,12.17
2019-02-02T01:40:45.312Z,10.82
2019-02-02T01:43:16.408Z,11.37
2019-02-02T01:45:47.274Z,10.47
2019-02-02T01:48:18.925Z,11.38
2019-02-02T01:50:49.471Z,12.35
2019-02-02T01:53:20.039Z,17.02
2019-02-02T01:55:51.006Z,18.05
2019-02-02T01:58:21.902Z,26.30
2019-02-02T02:00:54.569Z,27.75
2019-02-02T02:03:25.240Z,26.00
2019-02-02T02:05:56.837Z,28.92
2019-02-02T02:08:27.883Z,29.23
2019-02-02T02:10:58.563Z,26.40
2019-02-02T02:13:29.182Z,17.15
2019-02-02T02:16:01.836Z,18.57
2019-02-02T02:18:32.161Z,24.20
2019-02-02T02:21:02.562Z,32.10
2019-02-02T02:23:33.327Z,29.72
2019-02-02T02:26:04.942Z,25.57
2019-02-02T02:28:35.365Z,17.23
2019-02-02T02:31:05.872Z,12.30
2019-02-02T02:33:36.340Z,11.80
2019-02-02T02:36:06.828Z,10.72
2019-02-02T02:38:39.002Z,12.68
2019-02-02T02:41:09.827Z,12.00
2019-02-02T02:43:40.899Z,12.65
2019-02-02T02:46:11.556Z,13.15
2019-02-02T02:48:41.944Z,14.70
2019-02-02T02:51:12.970Z,13.58
2019-02-02T02:53:43.876Z,13.90
2019-02-02T02:56:14.492Z,13.87
2019-02-02T02:58:45.541Z,14.10
2019-02-02T03:01:17.277Z,12.63
2019-02-02T03:03:47.727Z,11.45
2019-02-02T03:06:19.800Z,10.83
2019-02-02T03:08:50.770Z,10.40
2019-02-02T03:11:21.732Z,9.57
2019-02-02T03:13:52.460Z,11.67
2019-02-02T03:16:26.163Z,9.80
2019-02-02T03:18:56.923Z,11.47
2019-02-02T03:21:27.650Z,10.63
2019-02-02T03:23:58.787Z,10.10
2019-02-02T03:26:29.253Z,10.20
2019-02-02T03:28:59.775Z,9.20
2019-02-02T03:31:30.373Z,10.65
2019-02-02T03:34:01.981Z,9.80
2019-02-02T03:36:32.746Z,9.03
2019-02-02T03:39:06.838Z,7.42
2019-02-02T03:41:37.432Z,7.92
2019-02-02T03:44:07.879Z,7.92
2019-02-02T03:46:38.722Z,8.33
2019-02-02T03:49:10.502Z,8.25
2019-02-02T03:51:41.195Z,8.85
2019-02-02T03:54:11.714Z,8.90
2019-02-02T03:56:42.694Z,9.15
2019-02-02T03:59:13.858Z,10.35
2019-02-02T04:01:45.708Z,9.60
2019-02-02T04:04:16.747Z,8.83
2019-02-02T04:06:48.064Z,10.50
2019-02-02T04:09:18.953Z,10.00
2019-02-02T04:11:50.351Z,9.50
2019-02-02T04:14:21.121Z,9.23
2019-02-02T04:16:52.016Z,10.60
2019-02-02T04:19:23.312Z,9.28
2019-02-02T04:21:53.979Z,11.20
2019-02-02T04:24:24.701Z,10.60
2019-02-02T04:26:55.117Z,9.28
2019-02-02T04:29:25.670Z,10.72
2019-02-02T04:31:57.790Z,10.20
2019-02-02T04:34:28.386Z,11.50
2019-02-02T04:36:58.960Z,10.40
2019-02-02T04:39:30.550Z,15.53
2019-02-02T04:42:01.125Z,14.47
2019-02-02T04:44:31.574Z,13.50
2019-02-02T04:47:02.534Z,13.58
2019-02-02T04:49:33.036Z,14.05
2019-02-02T04:52:03.556Z,15.45
2019-02-02T04:54:33.974Z,14.83
2019-02-02T04:57:04.492Z,16.60
2019-02-02T04:59:35.095Z,17.50
2019-02-02T05:02:06.640Z,19.30
2019-02-02T05:04:37.310Z,17.50
2019-02-02T05:07:08.048Z,16.23
2019-02-02T05:09:38.543Z,19.57
2019-02-02T05:12:09.315Z,18.57
2019-02-02T05:14:40.116Z,18.48
2019-02-02T05:17:11.044Z,19.82
2019-02-02T05:19:41.699Z,53.98
2019-02-02T05:22:12.429Z,50.30
2019-02-02T05:24:44.003Z,38.17
2019-02-02T05:27:15.049Z,27.30
2019-02-02T05:29:45.688Z,21.15
2019-02-02T05:32:16.324Z,16.85
2019-02-02T05:34:47.798Z,15.10
2019-02-02T05:37:18.551Z,14.30
2019-02-02T05:39:49.371Z,14.43
2019-02-02T05:42:20.244Z,19.70
2019-02-02T05:44:50.854Z,19.17
2019-02-02T05:47:21.057Z,14.87
2019-02-02T05:49:51.714Z,14.50
2019-02-02T05:52:22.185Z,14.13
2019-02-02T05:54:52.689Z,12.43
2019-02-02T05:57:23.372Z,14.43
2019-02-02T05:59:54.181Z,17.00
2019-02-02T06:02:25.751Z,13.60
2019-02-02T06:04:56.415Z,14.60
2019-02-02T06:07:27.312Z,13.87
2019-02-02T06:09:57.828Z,13.57
2019-02-02T06:12:28.936Z,12.03
2019-02-02T06:14:59.750Z,14.00
2019-02-02T06:17:30.751Z,13.77
2019-02-02T06:20:01.228Z,13.30
2019-02-02T06:22:32.267Z,12.90
2019-02-02T06:25:02.876Z,13.87
2019-02-02T06:27:33.294Z,12.50
2019-02-02T06:30:04.855Z,13.03
2019-02-02T06:32:37.055Z,13.20
2019-02-02T06:35:08.958Z,12.30
2019-02-02T06:37:39.702Z,13.57
2019-02-02T06:40:11.627Z,12.37
2019-02-02T06:42:42.613Z,16.17
2019-02-02T06:45:16.518Z,14.60
2019-02-02T06:47:47.470Z,13.00
2019-02-02T06:50:18.367Z,14.37
2019-02-02T06:52:49.156Z,13.00
2019-02-02T06:55:19.780Z,14.17
2019-02-02T06:57:50.294Z,13.33
2019-02-02T07:00:22.304Z,14.40
2019-02-02T07:02:53.876Z,13.13
2019-02-02T07:05:24.628Z,21.30
2019-02-02T07:08:14.137Z,73.60
2019-02-02T07:10:45.054Z,15.20
2019-02-02T07:13:15.916Z,9.73
2019-02-02T07:15:46.398Z,9.07
2019-02-02T07:18:17.038Z,8.23
2019-02-02T07:20:47.758Z,7.97
2019-02-02T07:23:18.475Z,7.97
2019-02-02T07:25:49.209Z,8.53
2019-02-02T07:28:20.054Z,8.43
2019-02-02T07:30:50.484Z,9.80
2019-02-02T07:33:21.033Z,8.80
2019-02-02T07:35:54.045Z,9.10
2019-02-02T07:38:23.881Z,8.67
2019-02-02T07:40:54.615Z,8.50
2019-02-02T07:43:25.239Z,11.20
2019-02-02T07:45:55.569Z,8.40
2019-02-02T07:48:26.297Z,9.00
2019-02-02T07:50:56.897Z,20.90
2019-02-02T07:53:27.831Z,10.40
2019-02-02T07:55:58.744Z,8.13
2019-02-02T07:58:29.324Z,7.93
2019-02-02T08:01:01.094Z,7.63
2019-02-02T08:03:32.978Z,7.80
2019-02-02T08:06:03.646Z,5.90
2019-02-02T08:08:34.164Z,6.30
2019-02-02T08:11:04.727Z,6.70
2019-02-02T08:13:35.900Z,6.70
2019-02-02T08:16:06.450Z,5.90
2019-02-02T08:18:36.798Z,7.50
2019-02-02T08:21:07.712Z,6.60
2019-02-02T08:23:39.949Z,5.70
2019-02-02T08:26:10.985Z,5.53
2019-02-02T08:28:42.306Z,5.03
2019-02-02T08:31:13.563Z,5.50
2019-02-02T08:33:45.407Z,5.30
2019-02-02T08:36:16.228Z,5.33
2019-02-02T08:38:46.644Z,5.20
2019-02-02T08:41:17.665Z,3.93
2019-02-02T08:43:48.193Z,5.03
2019-02-02T08:46:18.529Z,5.30
2019-02-02T08:48:49.054Z,5.27
2019-02-02T08:51:20.261Z,4.93
2019-02-02T08:53:52.002Z,5.37
2019-02-02T08:56:22.797Z,4.13
2019-02-02T08:58:53.487Z,4.63
2019-02-02T09:01:24.221Z,4.07
2019-02-02T09:03:57.137Z,5.17
2019-02-02T09:06:38.508Z,4.30
2019-02-02T09:09:00.614Z,4.63
2019-02-02T09:11:31.340Z,4.10
2019-02-02T09:14:01.883Z,4.87
2019-02-02T09:16:32.331Z,4.57
2019-02-02T09:19:02.873Z,4.40
2019-02-02T09:21:34.712Z,4.70
2019-02-02T09:24:05.451Z,3.60
2019-02-02T09:26:35.734Z,4.60
2019-02-02T09:29:06.614Z,3.90
2019-02-02T09:31:37.260Z,4.47
2019-02-02T09:34:09.891Z,5.87
2019-02-02T09:36:40.766Z,5.93
2019-02-02T09:39:11.456Z,4.60
2019-02-02T09:41:42.492Z,4.37
2019-02-02T09:44:13.479Z,5.10
2019-02-02T09:46:44.347Z,4.47
2019-02-02T09:49:14.997Z,3.93
2019-02-02T09:51:45.893Z,4.47
2019-02-02T09:54:26.450Z,4.23
2019-02-02T09:56:49.194Z,4.07
2019-02-02T09:59:19.682Z,3.97
2019-02-02T10:01:50.772Z,3.87
2019-02-02T10:04:22.291Z,4.80
2019-02-02T10:06:52.521Z,5.33
2019-02-02T10:09:23.467Z,4.80
2019-02-02T10:11:54.119Z,4.17
2019-02-02T10:14:24.855Z,4.80
2019-02-02T10:16:55.412Z,4.63
2019-02-02T10:19:26.150Z,4.23
2019-02-02T10:21:56.482Z,4.93
2019-02-02T10:24:28.664Z,4.87
2019-02-02T10:26:59.381Z,5.23
2019-02-02T10:29:29.955Z,6.00
2019-02-02T10:32:00.396Z,4.67
2019-02-02T10:34:30.979Z,4.60
2019-02-02T10:37:01.538Z,4.93
2019-02-02T10:39:31.708Z,4.80
2019-02-02T10:42:02.823Z,4.30
2019-02-02T10:44:33.068Z,4.27
2019-02-02T10:47:03.527Z,4.33
2019-02-02T10:49:34.341Z,4.30
2019-02-02T10:52:05.245Z,4.47
2019-02-02T10:54:35.908Z,4.77
2019-02-02T10:57:06.782Z,5.13
2019-02-02T10:59:37.401Z,5.73
2019-02-02T11:02:08.270Z,4.27
2019-02-02T11:04:42.836Z,4.50
2019-02-02T11:07:13.556Z,4.80
2019-02-02T11:09:44.199Z,4.57
2019-02-02T11:12:14.776Z,5.17
2019-02-02T11:14:45.281Z,5.10
2019-02-02T11:17:18.679Z,5.00
2019-02-02T11:19:49.531Z,4.60
2019-02-02T11:22:20.050Z,4.57
2019-02-02T11:24:50.725Z,4.90
2019-02-02T11:27:26.897Z,5.63
2019-02-02T11:29:57.579Z,7.47
2019-02-02T11:32:27.935Z,6.13
2019-02-02T11:34:58.784Z,5.80
2019-02-02T11:37:29.507Z,7.67
2019-02-02T11:40:00.335Z,7.60
2019-02-02T11:42:30.982Z,5.33
2019-02-02T11:45:01.782Z,5.40
2019-02-02T11:47:32.605Z,5.50
2019-02-02T11:50:03.084Z,4.90
2019-02-02T11:52:34.992Z,5.70
2019-02-02T11:55:05.994Z,5.10
2019-02-02T11:57:37.206Z,5.80
2019-02-02T12:00:16.286Z,5.70
2019-02-02T12:02:49.372Z,5.43
2019-02-02T12:05:20.188Z,5.00
2019-02-02T12:07:50.931Z,5.07
2019-02-02T12:10:25.774Z,6.07
2019-02-02T12:12:56.270Z,6.20
2019-02-02T12:15:26.899Z,6.30
2019-02-02T12:17:58.358Z,5.77
2019-02-02T12:20:32.961Z,5.80
2019-02-02T12:23:03.298Z,6.70
2019-02-02T12:25:33.983Z,6.50
2019-02-02T12:28:05.622Z,7.03
2019-02-02T12:30:37.472Z,6.50
2019-02-02T12:33:09.146Z,6.67
2019-02-02T12:35:40.721Z,7.10
2019-02-02T12:38:14.715Z,5.97
2019-02-02T12:40:45.204Z,6.53
2019-02-02T12:43:15.659Z,6.97
2019-02-02T12:45:49.353Z,6.60
2019-02-02T12:48:20.047Z,12.90
2019-02-02T12:50:51.108Z,6.83
2019-02-02T12:53:22.170Z,6.37
2019-02-02T12:55:53.217Z,8.23
2019-02-02T12:58:23.743Z,6.00
2019-02-02T13:00:54.360Z,7.30
2019-02-02T13:03:26.549Z,6.70
2019-02-02T13:05:59.362Z,6.23
2019-02-02T13:08:29.793Z,6.57
2019-02-02T13:11:00.443Z,6.60
2019-02-02T13:13:31.099Z,6.17
2019-02-02T13:16:01.733Z,7.03
2019-02-02T13:18:32.494Z,7.20
2019-02-02T13:21:02.893Z,7.00
2019-02-02T13:23:33.559Z,6.73
2019-02-02T13:26:05.756Z,7.03
2019-02-02T13:28:36.626Z,6.90
2019-02-02T13:31:07.203Z,6.97
2019-02-02T13:33:38.056Z,6.83
2019-02-02T13:36:09.130Z,7.67
2019-02-02T13:38:40.196Z,6.70
2019-02-02T13:41:10.840Z,6.60
2019-02-02T13:43:41.753Z,6.43
2019-02-02T13:46:13.752Z,7.13
2019-02-02T13:48:44.830Z,7.93
2019-02-02T13:51:15.351Z,13.70
2019-02-02T13:53:46.156Z,9.90
2019-02-02T13:56:18.549Z,11.50
2019-02-02T13:58:50.792Z,9.70
2019-02-02T14:01:21.448Z,9.33
2019-02-02T14:03:52.032Z,7.13
2019-02-02T14:06:23.768Z,8.80
2019-02-02T14:08:54.461Z,8.00
2019-02-02T14:11:24.961Z,7.40
2019-02-02T14:13:55.782Z,9.20
2019-02-02T14:16:26.358Z,8.77
2019-02-02T14:18:56.929Z,7.00
2019-02-02T14:21:27.800Z,7.50
2019-02-02T14:23:58.498Z,6.33
2019-02-02T14:26:29.309Z,6.73
2019-02-02T14:28:59.872Z,6.37
2019-02-02T14:31:30.392Z,8.00
2019-02-02T14:34:01.272Z,8.20
2019-02-02T14:36:32.340Z,8.83
2019-02-02T14:39:05.863Z,8.67
2019-02-02T14:41:38.483Z,7.40
2019-02-02T14:44:09.733Z,7.07
2019-02-02T14:46:40.708Z,7.20
2019-02-02T14:49:13.115Z,6.90
2019-02-02T14:51:44.291Z,6.63
2019-02-02T14:54:15.293Z,7.63
2019-02-02T14:56:48.174Z,7.50
2019-02-02T14:59:18.748Z,7.63
2019-02-02T15:01:49.515Z,9.13
2019-02-02T15:04:20.597Z,9.30
2019-02-02T15:06:52.603Z,9.53
2019-02-02T15:09:26.059Z,8.40
2019-02-02T15:11:55.937Z,8.20
2019-02-02T15:14:28.935Z,8.53
2019-02-02T15:16:59.528Z,13.03
2019-02-02T15:19:31.062Z,16.80
2019-02-02T15:22:01.331Z,22.30
2019-02-02T15:24:33.071Z,21.33
2019-02-02T15:27:04.046Z,19.37
2019-02-02T15:29:34.522Z,12.00
2019-02-02T15:32:05.072Z,11.70
2019-02-02T15:34:35.651Z,15.57
2019-02-02T15:37:07.540Z,13.43
2019-02-02T15:39:38.387Z,10.80
2019-02-02T15:42:08.948Z,10.80
2019-02-02T15:44:40.241Z,10.50
2019-02-02T15:47:11.242Z,14.50
2019-02-02T15:49:41.868Z,14.93
2019-02-02T15:52:13.737Z,9.10
2019-02-02T15:54:44.417Z,12.10
2019-02-02T15:57:16.386Z,12.83
2019-02-02T15:59:47.698Z,13.53
2019-02-02T16:02:18.349Z,19.43
2019-02-02T16:04:50.531Z,17.50
2019-02-02T16:07:22.205Z,18.77
2019-02-02T16:09:52.747Z,19.17
2019-02-02T16:12:23.220Z,15.07
2019-02-02T16:14:53.785Z,12.00
2019-02-02T16:17:24.500Z,12.97
2019-02-02T16:19:55.038Z,20.83
2019-02-02T16:22:25.532Z,21.57
2019-02-02T16:24:56.329Z,19.20
2019-02-02T16:27:27.045Z,19.53
2019-02-02T16:29:57.677Z,20.47
2019-02-02T16:32:28.189Z,20.33
2019-02-02T16:34:58.627Z,20.63
2019-02-02T16:37:28.797Z,16.93
2019-02-02T16:39:59.079Z,16.07
2019-02-02T16:42:29.907Z,17.43
2019-02-02T16:45:00.594Z,14.47
2019-02-02T16:47:30.804Z,12.80
2019-02-02T16:50:01.964Z,10.90
2019-02-02T16:52:32.479Z,11.97
2019-02-02T16:55:00.750Z,12.77
2019-02-02T16:57:31.970Z,11.40
2019-02-02T17:00:03.292Z,9.70
2019-02-02T17:02:33.917Z,10.37
2019-02-02T17:05:05.235Z,8.83
2019-02-02T17:07:36.683Z,8.33
2019-02-02T17:10:10.916Z,13.67
2019-02-02T17:12:42.074Z,13.70
2019-02-02T17:15:12.946Z,13.30
2019-02-02T17:17:44.501Z,16.00
2019-02-02T17:20:17.363Z,12.37
2019-02-02T17:22:48.932Z,13.73
2019-02-02T17:25:22.771Z,14.97
2019-02-02T17:27:53.310Z,11.57
2019-02-02T17:30:24.364Z,10.10
2019-02-02T17:32:56.998Z,10.17
2019-02-02T17:35:34.308Z,10.87
2019-02-02T17:38:07.938Z,10.73
2019-02-02T17:40:38.593Z,11.00
2019-02-02T17:43:11.455Z,11.30
2019-02-02T17:48:13.774Z,10.43
2019-02-02T17:50:45.194Z,10.73
2019-02-02T17:53:15.286Z,12.20
2019-02-02T17:55:46.007Z,11.83
2019-02-02T17:58:18.141Z,13.87
2019-02-02T18:00:52.650Z,14.50
2019-02-02T18:03:23.974Z,17.37
2019-02-02T18:05:55.104Z,17.50
2019-02-02T18:08:26.359Z,18.80
2019-02-02T18:10:57.424Z,18.53
2019-02-02T18:13:28.637Z,19.50
2019-02-02T18:18:42.851Z,17.70
2019-02-02T18:21:13.725Z,20.33
2019-02-02T18:23:45.212Z,18.77
2019-02-02T18:26:15.980Z,16.47
2019-02-02T18:28:47.747Z,17.70
2019-02-02T18:31:21.514Z,17.07
2019-02-02T18:33:54.736Z,16.27
2019-02-02T18:36:25.158Z,17.90
2019-02-02T18:38:56.024Z,18.17
2019-02-02T18:41:27.198Z,12.97
2019-02-02T18:43:57.926Z,13.00
2019-02-02T18:46:28.358Z,11.80
2019-02-02T18:48:59.056Z,13.87
2019-02-02T18:51:30.668Z,13.07
2019-02-02T18:54:02.749Z,12.23
2019-02-02T18:56:33.213Z,12.20
2019-02-02T18:59:04.152Z,13.30
2019-02-02T19:01:35.496Z,10.80
2019-02-02T19:04:08.627Z,10.73
2019-02-02T19:06:40.178Z,10.13
2019-02-02T19:09:14.434Z,10.77
2019-02-02T19:11:44.918Z,9.23
2019-02-02T19:14:15.940Z,9.43
2019-02-02T19:16:46.876Z,9.20
2019-02-02T19:19:17.467Z,8.47
2019-02-02T19:21:47.840Z,8.03
2019-02-02T19:24:18.741Z,9.47
2019-02-02T19:26:49.695Z,9.20
2019-02-02T19:29:20.985Z,10.23
2019-02-02T19:31:53.058Z,11.73
2019-02-02T19:34:23.585Z,12.40
2019-02-02T19:36:54.117Z,11.43
2019-02-02T19:39:25.222Z,9.37
2019-02-02T19:41:58.609Z,9.60
2019-02-02T19:44:29.331Z,9.43
2019-02-02T19:47:00.601Z,10.70
2019-02-02T19:49:32.644Z,11.67
2019-02-02T19:52:03.988Z,12.67
2019-02-02T19:54:35.890Z,14.50
2019-02-02T19:57:07.732Z,14.07
2019-02-02T19:59:38.975Z,16.73
2019-02-02T20:02:10.112Z,15.20
2019-02-02T20:04:40.801Z,15.00
2019-02-02T20:07:11.798Z,12.60
2019-02-02T20:09:43.656Z,12.90
2019-02-02T20:12:14.580Z,15.23
2019-02-02T20:14:45.308Z,11.70
2019-02-02T20:17:15.967Z,10.60
2019-02-02T20:19:47.911Z,9.47
2019-02-02T20:22:18.630Z,9.37
2019-02-02T20:24:49.195Z,8.60
2019-02-02T20:27:19.925Z,8.00
2019-02-02T20:29:50.632Z,8.90
2019-02-02T20:32:21.140Z,10.67
2019-02-02T20:34:52.081Z,9.10
2019-02-02T20:37:22.800Z,8.63
2019-02-02T20:39:53.335Z,10.77
2019-02-02T20:42:24.112Z,9.20
2019-02-02T20:44:55.330Z,10.00
2019-02-02T20:47:26.174Z,9.83
2019-02-02T20:49:57.255Z,8.97
2019-02-02T20:52:27.708Z,8.53
2019-02-02T20:54:58.489Z,15.53
2019-02-02T20:57:29.021Z,14.10
2019-02-02T20:59:59.480Z,13.37
2019-02-02T21:02:29.892Z,9.30
2019-02-02T21:04:59.995Z,9.20
2019-02-02T21:07:30.566Z,8.20
2019-02-02T21:10:02.067Z,8.40
2019-02-02T21:12:32.464Z,9.50
2019-02-02T21:15:03.916Z,10.43
2019-02-02T21:17:34.448Z,9.20
2019-02-02T21:20:06.506Z,8.37
2019-02-02T21:22:37.258Z,9.10
2019-02-02T21:25:09.017Z,10.13
2019-02-02T21:27:40.331Z,11.00
2019-02-02T21:30:18.009Z,11.57
2019-02-02T21:32:48.880Z,11.60
2019-02-02T21:35:19.600Z,11.17
2019-02-02T21:37:50.438Z,11.57
2019-02-02T21:40:22.889Z,11.43
2019-02-02T21:42:53.468Z,11.37
2019-02-02T21:45:24.073Z,10.70
2019-02-02T21:47:55.980Z,12.47
2019-02-02T21:50:27.265Z,11.67
2019-02-02T21:52:58.394Z,10.53
2019-02-02T21:55:29.613Z,12.17
2019-02-02T21:58:00.244Z,11.63
2019-02-02T22:00:39.607Z,12.60
2019-02-02T22:03:10.512Z,10.00
2019-02-02T22:05:41.517Z,14.50
2019-02-02T22:08:15.186Z,17.67
2019-02-02T22:10:47.057Z,17.80
2019-02-02T22:13:17.711Z,15.17
2019-02-02T22:15:48.560Z,19.10
2019-02-02T22:18:21.713Z,13.80
2019-02-02T22:20:50.880Z,19.70
2019-02-02T22:23:21.001Z,19.20
2019-02-02T22:25:51.531Z,19.17
2019-02-02T22:28:22.421Z,21.40
2019-02-02T22:30:53.140Z,22.10
2019-02-02T22:33:25.175Z,22.20
2019-02-02T22:35:55.701Z,32.27
2019-02-02T22:38:26.208Z,30.90
2019-02-02T22:40:56.674Z,26.07
2019-02-02T22:43:27.218Z,22.63
2019-02-02T22:45:58.143Z,17.63
2019-02-02T22:48:28.542Z,18.60
2019-02-02T22:50:58.964Z,17.80
2019-02-02T22:53:29.840Z,14.37
2019-02-02T22:56:00.026Z,13.53
2019-02-02T22:58:30.461Z,11.40
2019-02-02T23:01:47.437Z,11.57
2019-02-02T23:04:29.813Z,10.93
2019-02-02T23:07:18.721Z,8.20
2019-02-02T23:10:28.385Z,8.60
2019-02-02T23:13:30.808Z,8.70
2019-02-02T23:16:24.850Z,9.67
2019-02-02T23:18:56.133Z,9.27
2019-02-02T23:21:27.280Z,8.90
2019-02-02T23:23:58.224Z,8.40
2019-02-02T23:26:29.143Z,8.03
2019-02-02T23:28:59.367Z,11.77
2019-02-02T23:31:29.880Z,11.60
2019-02-02T23:34:00.246Z,10.10
2019-02-02T23:36:30.689Z,8.87
2019-02-02T23:39:01.252Z,7.73
2019-02-02T23:41:32.471Z,7.70
2019-02-02T23:44:02.906Z,9.03
2019-02-02T23:46:33.577Z,8.50
2019-02-02T23:49:04.473Z,8.00
2019-02-02T23:51:34.921Z,9.20
2019-02-02T23:54:05.604Z,10.00
2019-02-02T23:56:36.337Z,8.83
2019-02-02T23:59:09.545Z,8.00
